Time;durP1;ratioP1;P1;durP2;ratioP2;P2;SDS_P1;SDS_P2;PMS_P1;PMS_P2;Temp;Humidity;BMP_temperature;BMP_pressure;BME280_temperature;BME280_humidity;BME280_pressure;Samples;Min_cycle;Max_cycle;Signal;HPM_P1;HPM_P2
2023/06/18 00:01:51;;;;;;;17.10;15.25;;;;;;;14.05;85.22;94474.50;5084449;28;20028;-73
2023/06/18 00:04:17;;;;;;;16.42;14.65;;;;;;;14.11;84.68;94465.22;5069310;28;20035;-72
2023/06/18 00:06:42;;;;;;;16.30;14.65;;;;;;;14.22;84.50;94480.63;5089473;28;20077;-72
2023/06/18 00:09:08;;;;;;;16.80;15.10;;;;;;;14.25;84.80;94473.28;5090469;28;20040;-72
2023/06/18 00:11:33;;;;;;;15.90;14.20;;;;;;;13.90;83.58;94435.13;5066133;28;20037;-72
2023/06/18 00:13:59;;;;;;;16.77;15.02;;;;;;;14.13;84.43;94473.72;5089556;28;20081;-73
2023/06/18 00:16:24;;;;;;;17.30;14.88;;;;;;;14.16;84.49;94471.63;5089692;28;20028;-73
2023/06/18 00:18:50;;;;;;;18.20;15.93;;;;;;;14.24;84.30;94474.25;5071357;28;20028;-73
2023/06/18 00:21:15;;;;;;;16.50;14.68;;;;;;;14.29;85.26;94474.63;5089541;28;20038;-73
2023/06/18 00:23:40;;;;;;;16.55;14.80;;;;;;;14.43;84.31;94467.13;5080775;28;20036;-73
2023/06/18 00:26:06;;;;;;;20.85;15.68;;;;;;;14.41;84.36;94469.91;5071294;28;20021;-73
2023/06/18 00:28:31;;;;;;;15.80;14.25;;;;;;;14.27;83.56;94467.91;5088141;28;20020;-73
2023/06/18 00:30:57;;;;;;;17.10;15.43;;;;;;;14.13;84.92;94469.31;5089072;28;20050;-73
2023/06/18 00:33:24;;;;;;;18.20;15.48;;;;;;;14.16;85.79;94473.41;5070742;28;20024;-73
2023/06/18 00:35:57;;;;;;;18.58;16.58;;;;;;;14.17;85.40;94470.63;5072456;28;20032;-73
2023/06/18 00:38:23;;;;;;;18.10;16.23;;;;;;;14.25;85.54;94475.88;5085795;28;20052;-73
2023/06/18 00:40:49;;;;;;;22.48;15.82;;;;;;;14.19;85.41;94471.28;5087087;28;20119;-73
2023/06/18 00:43:14;;;;;;;17.58;15.77;;;;;;;14.16;84.43;94474.22;5071226;28;20537;-73
2023/06/18 00:45:40;;;;;;;17.23;15.43;;;;;;;14.05;84.77;94474.50;5088427;28;20036;-72
2023/06/18 00:48:05;;;;;;;19.58;16.23;;;;;;;14.09;85.21;94474.03;5084855;28;20043;-72
2023/06/18 00:50:32;;;;;;;17.73;15.93;;;;;;;14.02;85.64;94467.00;5086832;28;20052;-73
2023/06/18 00:52:59;;;;;;;17.88;15.98;;;;;;;14.01;84.96;94475.78;5069800;28;20060;-72
2023/06/18 00:55:27;;;;;;;19.80;16.77;;;;;;;14.09;85.24;94463.56;5070551;28;20036;-73
2023/06/18 00:57:59;;;;;;;17.92;16.02;;;;;;;14.03;84.84;94461.59;5054009;28;20039;-72
2023/06/18 01:00:28;;;;;;;18.73;16.75;;;;;;;14.14;85.38;94463.09;5088953;28;20452;-73
2023/06/18 01:02:55;;;;;;;19.25;16.88;;;;;;;14.15;85.83;94462.16;5070908;28;20024;-73
2023/06/18 01:05:21;;;;;;;18.73;16.83;;;;;;;14.27;85.14;94466.09;5083371;28;20020;-73
2023/06/18 01:07:47;;;;;;;21.02;16.73;;;;;;;14.19;85.34;94471.28;5069402;28;20025;-73
2023/06/18 01:10:14;;;;;;;18.42;16.52;;;;;;;14.21;84.17;94460.72;5054701;28;20426;-73
2023/06/18 01:12:39;;;;;;;19.60;16.83;;;;;;;14.27;85.26;94473.94;5088206;28;20487;-73
2023/06/18 01:15:05;;;;;;;19.33;17.25;;;;;;;14.17;84.92;94456.75;5065668;28;20032;-73
2023/06/18 01:17:33;;;;;;;20.58;17.08;;;;;;;14.24;84.97;94469.03;5088847;28;20490;-73
2023/06/18 01:20:09;;;;;;;18.52;16.42;;;;;;;14.24;85.49;94465.63;5071242;28;20032;-73
2023/06/18 01:22:39;;;;;;;18.60;16.58;;;;;;;14.20;86.20;94457.25;5069215;28;20483;-73
2023/06/18 01:25:08;;;;;;;23.98;16.75;;;;;;;14.15;86.45;94464.75;5069137;28;20036;-73
2023/06/18 01:27:33;;;;;;;19.92;17.83;;;;;;;14.34;84.98;94475.91;5070440;28;20559;-74
2023/06/18 01:30:00;;;;;;;23.25;18.08;;;;;;;14.33;84.48;94471.69;5071087;28;20075;-73
2023/06/18 01:32:25;;;;;;;24.63;18.20;;;;;;;14.41;84.91;94477.75;5072143;28;20541;-73
2023/06/18 01:34:53;;;;;;;20.15;17.55;;;;;;;14.17;85.39;94469.81;5084825;28;20043;-73
2023/06/18 01:37:44;;;;;;;23.58;16.55;;;;;;;14.22;85.28;94475.41;5089622;28;20035;-73
2023/06/18 01:40:27;;;;;;;20.15;17.90;;;;;;;14.45;84.60;94470.41;5088344;28;20040;-73
2023/06/18 01:42:59;;;;;;;19.92;17.85;;;;;;;14.35;85.30;94475.78;5070016;28;20039;-73
2023/06/18 01:45:28;;;;;;;20.10;17.35;;;;;;;14.30;85.27;94473.63;5070231;28;20040;-73
2023/06/18 01:47:56;;;;;;;20.00;17.90;;;;;;;14.17;85.38;94457.56;5053534;28;20518;-72
2023/06/18 01:50:21;;;;;;;19.15;16.83;;;;;;;14.43;83.91;94467.13;5086522;28;20124;-72
2023/06/18 01:52:47;;;;;;;20.80;17.75;;;;;;;14.33;84.09;94461.22;5070852;28;20035;-72
2023/06/18 01:55:12;;;;;;;19.58;17.48;;;;;;;14.21;84.88;94464.13;5084810;28;20046;-72
2023/06/18 01:57:37;;;;;;;19.35;17.35;;;;;;;14.25;85.34;94469.84;5070872;28;20024;-73
2023/06/18 02:00:04;;;;;;;21.13;18.83;;;;;;;14.26;85.50;94474.94;5085243;28;20559;-72
2023/06/18 02:02:30;;;;;;;21.48;17.92;;;;;;;14.30;85.59;94476.25;5080663;28;20020;-72
2023/06/18 02:04:56;;;;;;;21.15;18.90;;;;;;;14.24;85.61;94466.44;5067174;28;20040;-73
2023/06/18 02:07:21;;;;;;;20.17;17.98;;;;;;;14.38;85.58;94475.47;5070549;28;20517;-73
2023/06/18 02:09:46;;;;;;;20.30;18.13;;;;;;;14.39;85.16;94476.28;5069901;28;20040;-73
2023/06/18 02:12:12;;;;;;;21.30;18.45;;;;;;;14.31;85.60;94467.41;5087796;28;20038;-73
2023/06/18 02:14:38;;;;;;;22.05;18.48;;;;;;;14.33;85.76;94474.28;5086878;28;20042;-73
2023/06/18 02:17:03;;;;;;;20.80;18.42;;;;;;;14.42;84.90;94468.09;5080050;28;20055;-74
2023/06/18 02:19:29;;;;;;;22.25;17.95;;;;;;;14.39;85.15;94473.66;5065651;28;20024;-73
2023/06/18 02:21:54;;;;;;;21.65;19.35;;;;;;;14.42;85.18;94471.53;5070475;28;20044;-73
2023/06/18 02:24:20;;;;;;;21.95;19.60;;;;;;;14.27;85.84;94460.88;5083798;28;20482;-73
2023/06/18 02:26:45;;;;;;;23.70;18.48;;;;;;;14.34;85.63;94476.72;5086901;28;20032;-73
2023/06/18 02:29:11;;;;;;;24.73;19.27;;;;;;;14.43;84.72;94473.19;5067547;28;20051;-73
2023/06/18 02:31:36;;;;;;;20.38;18.17;;;;;;;14.30;85.41;94472.81;5052877;28;20036;-73
2023/06/18 02:34:02;;;;;;;21.38;19.10;;;;;;;14.34;85.91;94473.31;5068305;28;20039;-73
2023/06/18 02:36:28;;;;;;;23.25;18.77;;;;;;;14.30;85.74;94468.41;5067173;28;20051;-73
2023/06/18 02:38:54;;;;;;;23.70;19.80;;;;;;;14.28;86.09;94478.19;5065953;28;20031;-73
2023/06/18 02:41:19;;;;;;;24.60;20.10;;;;;;;14.42;85.83;94470.72;5087048;28;20140;-73
2023/06/18 02:43:47;;;;;;;23.15;19.35;;;;;;;14.43;85.81;94482.81;5082432;28;20529;-73
2023/06/18 02:46:12;;;;;;;22.27;19.48;;;;;;;14.40;85.96;94485.72;5088766;28;20020;-73
2023/06/18 02:48:38;;;;;;;21.58;19.27;;;;;;;14.41;85.29;94484.78;5082931;28;20080;-73
2023/06/18 02:51:03;;;;;;;20.20;18.17;;;;;;;14.23;86.21;94477.84;5069517;28;20237;-72
2023/06/18 02:53:29;;;;;;;23.40;19.33;;;;;;;14.23;86.53;94488.28;5084850;28;20065;-72
2023/06/18 02:55:54;;;;;;;21.42;18.67;;;;;;;14.38;85.56;94490.31;5086457;28;20028;-72
2023/06/18 02:58:27;;;;;;;22.13;19.83;;;;;;;14.37;85.77;94488.66;5062292;28;20028;-72
2023/06/18 03:00:53;;;;;;;22.83;19.10;;;;;;;14.35;86.43;94499.28;5070232;28;20090;-72
2023/06/18 03:03:19;;;;;;;22.20;19.90;;;;;;;14.28;86.40;94487.81;5083657;28;20036;-72
2023/06/18 03:05:46;;;;;;;21.80;19.50;;;;;;;14.28;86.13;94485.22;5069513;28;20170;-73
2023/06/18 03:08:12;;;;;;;21.25;19.08;;;;;;;14.37;86.00;94496.50;5068400;28;20020;-73
2023/06/18 03:10:37;;;;;;;21.50;19.27;;;;;;;14.36;85.82;94502.72;5069618;28;20040;-73
2023/06/18 03:13:02;;;;;;;21.45;19.15;;;;;;;14.42;85.55;94496.84;5082687;28;20044;-73
2023/06/18 03:15:28;;;;;;;21.50;19.23;;;;;;;14.45;85.84;94496.53;5086730;28;20033;-73
2023/06/18 03:17:53;;;;;;;22.90;19.27;;;;;;;14.51;85.80;94501.13;5087076;28;20028;-73
2023/06/18 03:20:19;;;;;;;20.77;18.67;;;;;;;14.52;86.02;94497.59;5062052;28;20036;-73
2023/06/18 03:22:44;;;;;;;21.08;18.88;;;;;;;14.31;85.87;94485.69;5086249;28;20101;-73
2023/06/18 03:25:10;;;;;;;21.40;19.25;;;;;;;14.39;85.19;94476.28;5084059;28;20477;-73
2023/06/18 03:27:35;;;;;;;22.23;18.65;;;;;;;14.60;84.40;94502.00;5052113;28;20027;-73
2023/06/18 03:30:04;;;;;;;20.83;18.63;;;;;;;14.45;85.26;94499.16;5087310;28;20467;-72
2023/06/18 03:32:29;;;;;;;20.73;18.55;;;;;;;14.47;85.18;94494.59;5085706;28;20028;-73
2023/06/18 03:34:55;;;;;;;19.98;17.88;;;;;;;14.09;86.54;94502.75;5064595;28;20043;-73
2023/06/18 03:37:20;;;;;;;21.73;18.05;;;;;;;14.20;86.91;94509.50;5087273;28;20035;-72
2023/06/18 03:39:46;;;;;;;20.63;18.30;;;;;;;14.47;85.68;94505.03;5083967;28;20040;-72
2023/06/18 03:42:11;;;;;;;25.17;18.83;;;;;;;14.17;87.17;94507.19;5063430;28;20032;-72
2023/06/18 03:44:37;;;;;;;21.90;19.55;;;;;;;14.30;87.53;94504.16;5060725;28;20506;-72
2023/06/18 03:47:02;;;;;;;21.13;18.98;;;;;;;14.30;87.16;94512.81;5069620;28;20497;-73
2023/06/18 03:49:27;;;;;;;20.48;18.17;;;;;;;14.50;86.25;94502.09;5077113;28;20086;-73
2023/06/18 03:51:53;;;;;;;21.23;18.42;;;;;;;14.50;84.55;94510.75;5080765;28;20032;-72
2023/06/18 03:54:18;;;;;;;21.35;19.13;;;;;;;14.67;85.58;94511.66;5064157;28;20082;-72
2023/06/18 03:56:44;;;;;;;21.13;18.90;;;;;;;14.64;86.02;94513.78;5079851;28;20426;-72
2023/06/18 03:59:09;;;;;;;20.65;18.50;;;;;;;14.53;86.71;94510.47;5066021;28;20514;-73
2023/06/18 04:01:35;;;;;;;20.42;18.23;;;;;;;14.48;86.54;94506.66;5086301;28;20040;-73
2023/06/18 04:04:01;;;;;;;22.85;18.30;;;;;;;14.69;86.46;94516.75;5064063;28;20097;-73
2023/06/18 04:06:27;;;;;;;22.65;19.80;;;;;;;14.55;86.70;94505.09;5063395;28;20058;-73
2023/06/18 04:08:53;;;;;;;21.15;18.95;;;;;;;14.58;86.90;94506.59;5046562;28;20879;-73
2023/06/18 04:11:18;;;;;;;21.33;19.02;;;;;;;14.74;86.76;94507.44;5057408;28;20040;-72
2023/06/18 04:13:44;;;;;;;21.77;19.48;;;;;;;14.67;87.14;94522.13;5084018;28;20028;-73
2023/06/18 04:16:10;;;;;;;22.27;19.33;;;;;;;14.58;86.87;94517.03;5086682;28;20035;-73
2023/06/18 04:18:35;;;;;;;22.08;19.67;;;;;;;14.73;86.74;94526.69;5079311;28;20052;-72
2023/06/18 04:21:00;;;;;;;21.73;19.42;;;;;;;14.67;85.53;94509.03;5085335;28;20028;-72
2023/06/18 04:23:27;;;;;;;23.13;18.67;;;;;;;14.67;85.30;94526.53;5049105;28;20035;-73
2023/06/18 04:25:53;;;;;;;21.55;18.80;;;;;;;14.70;86.21;94524.41;5084793;28;20498;-73
2023/06/18 04:28:20;;;;;;;20.27;18.20;;;;;;;14.74;85.54;94522.31;5068457;28;20031;-73
2023/06/18 04:30:45;;;;;;;24.08;19.00;;;;;;;14.82;86.31;94526.72;5086886;28;20194;-73
2023/06/18 04:33:10;;;;;;;21.10;18.85;;;;;;;14.66;87.39;94533.56;5077556;28;20028;-72
2023/06/18 04:35:36;;;;;;;21.60;19.30;;;;;;;14.86;84.48;94526.25;5065344;28;20028;-73
2023/06/18 04:38:01;;;;;;;21.83;19.52;;;;;;;14.75;86.03;94534.41;5085581;28;20040;-73
2023/06/18 04:40:27;;;;;;;20.45;18.25;;;;;;;14.81;85.83;94506.81;5085822;28;20391;-73
2023/06/18 04:42:52;;;;;;;22.00;19.65;;;;;;;14.92;85.89;94532.66;5051442;28;20411;-73
2023/06/18 04:45:17;;;;;;;22.20;19.90;;;;;;;14.80;86.54;94537.38;5083596;28;20035;-72
2023/06/18 04:47:43;;;;;;;21.30;19.10;;;;;;;14.98;86.17;94542.47;5080131;28;20040;-73
2023/06/18 04:50:09;;;;;;;21.48;19.17;;;;;;;15.08;84.66;94539.72;5086105;28;20423;-73
2023/06/18 04:52:34;;;;;;;22.40;19.52;;;;;;;15.08;85.20;94540.53;5087690;28;20230;-73
2023/06/18 04:54:59;;;;;;;21.75;19.45;;;;;;;15.16;85.09;94540.53;5084322;28;20078;-73
2023/06/18 04:57:26;;;;;;;20.83;18.70;;;;;;;15.24;85.55;94551.97;5071475;28;20024;-72
2023/06/18 04:59:52;;;;;;;20.35;18.33;;;;;;;15.01;85.58;94560.44;5078264;28;20033;-72
2023/06/18 05:02:17;;;;;;;22.42;19.25;;;;;;;15.02;84.45;94564.72;5083034;28;20036;-72
2023/06/18 05:04:43;;;;;;;20.85;18.73;;;;;;;15.10;83.84;94563.91;5085013;28;20036;-73
2023/06/18 05:07:08;;;;;;;19.00;17.10;;;;;;;15.13;83.80;94564.41;5082513;28;20508;-72
2023/06/18 05:09:34;;;;;;;20.23;18.13;;;;;;;15.06;84.44;94558.16;5085566;28;20032;-73
2023/06/18 05:11:59;;;;;;;19.98;17.88;;;;;;;15.02;83.70;94572.56;5072010;28;20032;-73
2023/06/18 05:14:25;;;;;;;19.45;17.45;;;;;;;15.22;82.42;94567.03;5087499;28;20028;-73
2023/06/18 05:16:51;;;;;;;20.35;17.33;;;;;;;15.11;84.21;94570.78;5087032;28;20036;-73
2023/06/18 05:19:16;;;;;;;19.13;17.02;;;;;;;15.03;82.42;94587.28;5068646;28;20027;-73
2023/06/18 05:21:42;;;;;;;19.65;16.58;;;;;;;15.22;82.92;94580.13;5054737;28;20036;-73
2023/06/18 05:24:08;;;;;;;19.98;16.90;;;;;;;15.32;83.70;94586.00;5084730;28;20036;-73
2023/06/18 05:26:33;;;;;;;19.73;17.73;;;;;;;15.29;82.32;94578.47;5083437;28;20036;-72
2023/06/18 05:28:59;;;;;;;20.48;18.38;;;;;;;15.07;84.36;94591.22;5054010;28;20050;-72
2023/06/18 05:31:25;;;;;;;21.33;17.70;;;;;;;15.18;84.07;94593.53;5088697;28;20040;-73
2023/06/18 05:33:50;;;;;;;20.00;17.98;;;;;;;15.46;82.73;94601.09;5086286;28;20040;-72
2023/06/18 05:36:15;;;;;;;19.50;17.50;;;;;;;15.38;81.96;94591.44;5085275;28;20040;-73
2023/06/18 05:38:41;;;;;;;19.38;17.50;;;;;;;15.20;84.22;94598.59;5081853;28;20066;-72
2023/06/18 05:41:06;;;;;;;20.80;18.60;;;;;;;15.08;85.27;94603.31;5071013;28;20028;-72
2023/06/18 05:43:32;;;;;;;21.60;19.13;;;;;;;14.94;83.82;94611.78;5068694;28;20031;-73
2023/06/18 05:45:57;;;;;;;19.50;17.60;;;;;;;14.97;82.94;94601.00;5083645;28;20050;-72
2023/06/18 05:48:23;;;;;;;20.20;18.13;;;;;;;14.98;82.83;94608.66;5085399;28;20024;-73
2023/06/18 05:50:48;;;;;;;19.42;17.42;;;;;;;14.96;83.91;94601.97;5084448;28;20056;-73
2023/06/18 05:53:15;;;;;;;20.05;18.05;;;;;;;15.15;84.01;94608.72;5064994;28;20048;-72
2023/06/18 05:55:40;;;;;;;20.50;18.20;;;;;;;15.29;84.37;94622.97;5083412;28;20089;-72
2023/06/18 05:58:06;;;;;;;20.33;18.23;;;;;;;15.14;84.00;94615.75;5081332;28;20020;-73
2023/06/18 06:00:32;;;;;;;19.42;17.50;;;;;;;15.20;83.68;94604.63;5067602;28;20023;-73
2023/06/18 06:02:57;;;;;;;20.30;18.20;;;;;;;15.06;84.34;94615.72;5086553;28;20051;-74
2023/06/18 06:05:23;;;;;;;19.17;17.20;;;;;;;15.05;84.11;94624.56;5084138;28;20028;-73
2023/06/18 06:07:48;;;;;;;19.00;17.00;;;;;;;15.28;83.28;94623.97;5077265;28;20037;-74
2023/06/18 06:10:16;;;;;;;18.67;16.83;;;;;;;15.39;82.43;94626.28;5076667;28;20567;-74
2023/06/18 06:12:41;;;;;;;20.45;18.10;;;;;;;15.38;83.29;94624.66;5065406;28;20039;-74
2023/06/18 06:15:09;;;;;;;20.67;17.98;;;;;;;15.28;83.99;94635.25;5085456;28;20035;-74
2023/06/18 06:17:35;;;;;;;19.38;17.38;;;;;;;15.28;82.12;94613.50;5088438;28;20024;-74
2023/06/18 06:20:00;;;;;;;17.83;16.13;;;;;;;15.20;81.81;94622.94;5087140;28;20102;-74
2023/06/18 06:22:26;;;;;;;18.48;16.60;;;;;;;15.27;82.29;94636.22;5087525;28;20027;-81
2023/06/18 06:24:52;;;;;;;19.40;17.40;;;;;;;15.32;82.25;94614.78;5044843;28;20748;-74
2023/06/18 06:27:18;;;;;;;27.23;23.63;;;;;;;15.46;83.88;94648.22;5070355;28;20020;-74
2023/06/18 06:29:43;;;;;;;19.92;17.83;;;;;;;15.22;83.17;94642.91;5083267;28;20040;-73
2023/06/18 06:32:08;;;;;;;18.67;16.77;;;;;;;15.47;82.36;94649.84;5085848;28;20387;-74
2023/06/18 06:34:34;;;;;;;20.25;17.80;;;;;;;15.42;83.18;94642.47;5066827;28;20097;-75
2023/06/18 06:36:59;;;;;;;18.27;16.42;;;;;;;15.36;83.43;94637.06;5068949;28;20032;-75
2023/06/18 06:39:25;;;;;;;19.02;17.02;;;;;;;15.55;83.20;94647.25;5080257;28;20035;-74
2023/06/18 06:41:50;;;;;;;18.27;16.40;;;;;;;15.48;83.14;94650.66;5086864;28;20024;-74
2023/06/18 06:44:16;;;;;;;19.98;16.42;;;;;;;15.42;83.41;94652.13;5081812;28;20399;-74
2023/06/18 06:46:41;;;;;;;18.02;16.23;;;;;;;15.57;81.77;94661.00;5086606;28;20024;-74
2023/06/18 06:49:07;;;;;;;19.33;17.42;;;;;;;15.44;82.50;94650.16;5068596;28;20776;-73
2023/06/18 06:51:36;;;;;;;16.63;14.93;;;;;;;15.57;81.12;94661.00;5086901;28;20047;-72
2023/06/18 06:54:02;;;;;;;18.10;16.20;;;;;;;15.57;81.82;94655.75;5065827;28;20032;-74
2023/06/18 06:56:28;;;;;;;17.45;15.65;;;;;;;15.34;81.78;94639.00;5086586;28;20119;-74
2023/06/18 06:58:53;;;;;;;18.02;16.30;;;;;;;15.43;82.17;94653.75;5084409;28;20040;-74
2023/06/18 07:01:21;;;;;;;17.23;15.43;;;;;;;15.50;82.24;94664.41;5086910;28;20385;-74
2023/06/18 07:03:47;;;;;;;18.77;16.77;;;;;;;15.57;82.14;94661.00;5081337;28;20047;-74
2023/06/18 07:06:12;;;;;;;18.13;16.27;;;;;;;15.62;82.25;94666.53;5070018;28;20444;-73
2023/06/18 07:08:38;;;;;;;17.83;16.02;;;;;;;15.72;81.43;94668.25;5082067;28;20496;-75
2023/06/18 07:11:03;;;;;;;16.48;14.88;;;;;;;15.73;81.25;94677.72;5080306;28;20494;-75
2023/06/18 07:13:28;;;;;;;17.92;16.02;;;;;;;15.77;81.96;94676.44;5045568;28;20425;-74
2023/06/18 07:15:54;;;;;;;18.02;16.13;;;;;;;15.81;82.36;94675.13;5085352;28;20050;-74
2023/06/18 07:18:20;;;;;;;17.58;15.77;;;;;;;15.88;81.22;94688.38;5084833;28;20035;-74
2023/06/18 07:20:45;;;;;;;18.45;16.50;;;;;;;15.71;81.73;94677.06;5060877;28;20032;-74
2023/06/18 07:23:10;;;;;;;18.67;16.77;;;;;;;15.88;80.45;94678.75;5087841;28;20032;-74
2023/06/18 07:25:36;;;;;;;18.80;16.83;;;;;;;15.62;81.71;94678.81;5063381;28;20016;-74
2023/06/18 07:28:01;;;;;;;18.50;16.58;;;;;;;15.86;81.16;94686.75;5086958;28;20725;-74
2023/06/18 07:30:27;;;;;;;18.23;16.42;;;;;;;15.83;81.89;94675.78;5080282;28;20020;-80
2023/06/18 07:32:52;;;;;;;18.58;16.67;;;;;;;15.87;81.70;94671.84;5051585;28;20554;-73
2023/06/18 07:35:17;;;;;;;19.48;15.68;;;;;;;15.94;81.63;94678.09;5053333;28;20029;-73
2023/06/18 07:37:43;;;;;;;17.05;15.38;;;;;;;15.83;82.07;94681.03;5053532;28;20459;-77
2023/06/18 07:40:09;;;;;;;18.77;16.77;;;;;;;16.01;82.08;94686.09;5064856;28;20028;-79
2023/06/18 07:42:34;;;;;;;17.08;15.32;;;;;;;16.02;81.66;94685.94;5074625;28;20051;-73
2023/06/18 07:45:00;;;;;;;18.73;16.17;;;;;;;16.15;83.78;94676.78;5086504;28;20071;-71
2023/06/18 07:47:25;;;;;;;18.13;16.33;;;;;;;16.07;82.85;94691.53;5073994;28;20029;-72
2023/06/18 07:49:51;;;;;;;17.48;15.73;;;;;;;16.05;82.41;94701.34;5077409;28;20117;-73
2023/06/18 07:52:16;;;;;;;18.70;16.80;;;;;;;16.14;82.33;94683.00;5078639;28;20036;-72
2023/06/18 07:54:42;;;;;;;17.63;15.82;;;;;;;16.29;82.15;94697.06;5072765;28;20040;-72
2023/06/18 07:57:07;;;;;;;18.05;16.15;;;;;;;16.19;82.98;94678.91;5063887;28;20032;-74
2023/06/18 07:59:32;;;;;;;16.67;14.98;;;;;;;16.34;81.51;94694.78;5052200;28;20387;-73
2023/06/18 08:01:58;;;;;;;16.92;15.23;;;;;;;16.45;79.83;94685.75;5085288;28;20069;-73
2023/06/18 08:04:23;;;;;;;18.02;15.55;;;;;;;16.47;81.36;94694.28;5086825;28;20032;-72
2023/06/18 08:06:50;;;;;;;17.23;15.10;;;;;;;16.47;80.98;94699.53;5079240;28;20061;-72
2023/06/18 08:09:16;;;;;;;17.08;15.27;;;;;;;16.56;81.27;94710.81;5072519;28;20036;-72
2023/06/18 08:11:42;;;;;;;16.05;14.43;;;;;;;16.64;79.96;94700.31;5072152;28;20056;-72
2023/06/18 08:14:07;;;;;;;16.10;14.50;;;;;;;16.61;79.91;94711.97;5063655;28;20130;-73
2023/06/18 08:16:33;;;;;;;14.82;13.30;;;;;;;16.69;77.71;94705.88;5072368;28;20482;-73
2023/06/18 08:18:58;;;;;;;15.43;13.80;;;;;;;16.64;79.30;94703.75;5087056;28;20062;-73
2023/06/18 08:21:24;;;;;;;15.23;13.63;;;;;;;16.95;78.97;94716.19;5068841;28;20086;-73
2023/06/18 08:23:50;;;;;;;14.50;13.07;;;;;;;16.85;78.55;94716.34;5034909;28;20037;-72
2023/06/18 08:26:16;;;;;;;15.48;13.90;;;;;;;16.80;78.25;94712.59;5036614;28;20123;-73
2023/06/18 08:28:41;;;;;;;16.17;14.57;;;;;;;16.94;79.94;94723.22;5053378;28;20037;-72
2023/06/18 08:31:07;;;;;;;16.38;14.63;;;;;;;17.02;80.36;94726.81;5077361;28;20494;-72
2023/06/18 08:33:32;;;;;;;16.10;14.35;;;;;;;16.77;79.78;94726.88;5089935;28;20506;-72
2023/06/18 08:35:59;;;;;;;15.45;13.85;;;;;;;16.75;78.97;94713.09;5089462;28;20039;-78
2023/06/18 08:38:24;;;;;;;15.85;14.25;;;;;;;16.86;80.15;94730.31;5089372;28;20047;-74
2023/06/18 08:40:51;;;;;;;16.00;14.25;;;;;;;16.97;78.83;94733.38;5090985;28;20490;-73
2023/06/18 08:43:21;;;;;;;14.80;13.35;;;;;;;17.03;78.39;94737.16;5090708;28;20600;-74
2023/06/18 08:45:51;;;;;;;15.53;13.80;;;;;;;16.80;78.93;94726.56;5083550;28;20486;-74
2023/06/18 08:48:17;;;;;;;15.40;13.65;;;;;;;16.92;79.30;94725.19;5088999;28;20036;-74
2023/06/18 08:50:43;;;;;;;18.55;13.73;;;;;;;17.08;78.89;94726.16;5072781;28;20055;-73
2023/06/18 08:53:11;;;;;;;15.15;13.65;;;;;;;17.02;79.91;94729.44;5070749;28;20036;-74
2023/06/18 08:55:36;;;;;;;15.85;14.25;;;;;;;17.02;79.55;94732.06;5087120;28;20440;-73
2023/06/18 08:58:05;;;;;;;14.63;13.23;;;;;;;17.28;77.28;94735.25;5071162;28;20039;-73
2023/06/18 09:00:31;;;;;;;14.70;13.13;;;;;;;17.13;77.01;94737.78;5071876;28;20035;-74
2023/06/18 09:02:56;;;;;;;13.18;11.88;;;;;;;16.96;76.09;94715.19;5071989;28;20040;-73
2023/06/18 09:05:22;;;;;;;14.43;13.05;;;;;;;17.25;77.69;94735.59;5070767;28;20496;-73
2023/06/18 09:07:47;;;;;;;13.68;12.27;;;;;;;17.25;77.14;94740.84;5087185;28;20032;-73
2023/06/18 09:10:13;;;;;;;12.40;11.10;;;;;;;16.97;75.20;94724.72;5089810;28;20048;-73
2023/06/18 09:12:39;;;;;;;14.48;12.90;;;;;;;16.98;76.21;94731.59;5071412;28;20039;-73
2023/06/18 09:15:05;;;;;;;13.32;12.02;;;;;;;17.06;75.88;94736.00;5088500;28;20038;-73
2023/06/18 09:17:32;;;;;;;13.75;12.10;;;;;;;16.94;77.34;94738.97;5084801;28;20485;-72
2023/06/18 09:19:57;;;;;;;16.15;13.45;;;;;;;16.84;77.43;94740.97;5068717;28;20028;-73
2023/06/18 09:22:23;;;;;;;12.90;11.60;;;;;;;16.95;76.03;94745.03;5071312;28;20028;-73
2023/06/18 09:24:55;;;;;;;12.50;11.25;;;;;;;16.87;75.12;94738.00;5071335;28;20028;-72
2023/06/18 09:27:21;;;;;;;12.68;11.35;;;;;;;16.83;75.41;94747.19;5086143;28;20501;-72
2023/06/18 09:29:46;;;;;;;13.48;12.07;;;;;;;17.20;75.18;94740.53;5088528;28;20043;-72
2023/06/18 09:32:14;;;;;;;13.15;11.57;;;;;;;17.02;75.72;94745.16;5086218;28;20028;-72
2023/06/18 09:34:40;;;;;;;13.57;11.02;;;;;;;17.15;75.50;94727.09;5088066;28;20038;-72
2023/06/18 09:37:06;;;;;;;11.93;10.73;;;;;;;17.11;75.01;94750.25;5086919;28;20024;-73
2023/06/18 09:39:32;;;;;;;11.93;10.73;;;;;;;17.10;75.40;94742.53;5088595;28;20038;-72
2023/06/18 09:42:06;;;;;;;12.52;11.00;;;;;;;17.13;75.71;94744.81;5070255;28;20025;-72
2023/06/18 09:44:32;;;;;;;12.80;11.50;;;;;;;17.24;76.29;94735.75;5069106;28;20036;-72
2023/06/18 09:46:57;;;;;;;13.40;12.10;;;;;;;17.39;75.98;94748.00;5086339;28;20387;-73
2023/06/18 09:49:23;;;;;;;11.77;10.68;;;;;;;17.43;74.55;94733.53;5071980;28;20105;-72
2023/06/18 09:51:49;;;;;;;12.27;11.07;;;;;;;17.51;75.72;94737.13;5086062;28;20024;-73
2023/06/18 09:54:15;;;;;;;12.32;11.23;;;;;;;17.51;74.82;94742.38;5071476;28;20032;-72
2023/06/18 09:56:57;;;;;;;11.40;10.23;;;;;;;17.47;74.75;94730.56;5065114;28;20473;-72
2023/06/18 09:59:23;;;;;;;12.10;10.90;;;;;;;17.46;73.94;94736.81;5082387;28;20036;-72
2023/06/18 10:01:49;;;;;;;11.13;10.05;;;;;;;17.82;73.67;94745.84;5053706;28;20031;-73
2023/06/18 10:04:14;;;;;;;11.55;10.45;;;;;;;17.82;73.10;94745.03;5087495;28;20036;-72
2023/06/18 10:06:42;;;;;;;10.90;9.82;;;;;;;17.76;73.17;94743.91;5086264;28;20152;-72
2023/06/18 10:09:08;;;;;;;10.93;9.88;;;;;;;18.07;72.33;94741.25;5071477;28;20040;-72
2023/06/18 10:11:34;;;;;;;10.82;9.82;;;;;;;17.91;73.46;94732.66;5070520;28;20035;-73
2023/06/18 10:14:02;;;;;;;12.55;9.85;;;;;;;17.87;71.81;94740.09;5087926;28;20616;-73
2023/06/18 10:16:28;;;;;;;11.38;9.55;;;;;;;18.03;72.12;94741.81;5068712;28;20035;-72
2023/06/18 10:19:08;;;;;;;10.40;9.40;;;;;;;17.98;72.34;94744.13;5067715;28;20040;-72
2023/06/18 10:21:35;;;;;;;12.13;9.73;;;;;;;18.20;73.35;94738.06;5087155;28;20036;-73
2023/06/18 10:24:15;;;;;;;10.25;9.25;;;;;;;18.15;71.20;94742.22;5070745;28;20603;-73
2023/06/18 10:26:41;;;;;;;13.17;9.40;;;;;;;17.98;70.06;94746.75;5085162;28;20032;-72
2023/06/18 10:29:06;;;;;;;9.50;8.20;;;;;;;18.27;69.48;94725.84;5053555;28;20363;-73
2023/06/18 10:31:32;;;;;;;9.25;8.35;;;;;;;18.37;69.14;94730.06;5069667;28;20024;-72
2023/06/18 10:33:57;;;;;;;10.23;9.10;;;;;;;18.50;70.50;94731.09;5070472;28;20032;-72
2023/06/18 10:36:23;;;;;;;9.60;8.63;;;;;;;18.71;69.83;94717.25;5051817;28;20081;-73
2023/06/18 10:38:49;;;;;;;10.38;8.77;;;;;;;18.37;69.84;94724.81;5070266;28;20032;-76
2023/06/18 10:41:17;;;;;;;10.00;8.50;;;;;;;18.71;68.58;94725.13;5064967;28;20020;-72
2023/06/18 10:43:43;;;;;;;9.05;8.15;;;;;;;18.71;68.91;94722.50;5086110;28;20529;-71
2023/06/18 10:46:14;;;;;;;8.73;7.93;;;;;;;19.00;68.58;94720.94;5085856;28;20024;-71
2023/06/18 10:48:40;;;;;;;8.57;7.68;;;;;;;19.15;66.96;94721.75;5065829;28;20032;-72
2023/06/18 10:51:14;;;;;;;8.88;8.07;;;;;;;19.13;68.23;94715.84;5051583;28;20103;-71
2023/06/18 10:53:39;;;;;;;9.00;7.47;;;;;;;19.12;66.64;94700.25;5069611;28;20040;-71
2023/06/18 10:56:05;;;;;;;9.15;8.32;;;;;;;19.16;66.38;94704.94;5083352;28;20525;-71
2023/06/18 10:58:45;;;;;;;8.68;7.22;;;;;;;19.14;66.48;94716.69;5067795;28;20089;-74
2023/06/18 11:01:25;;;;;;;8.77;7.82;;;;;;;19.36;66.34;94710.50;5067702;28;20112;-72
2023/06/18 11:04:05;;;;;;;9.30;8.40;;;;;;;19.21;67.19;94712.31;5067278;28;20031;-71
2023/06/18 11:06:31;;;;;;;8.90;7.88;;;;;;;19.25;66.98;94715.38;5078491;28;20505;-71
2023/06/18 11:08:56;;;;;;;9.40;8.02;;;;;;;19.30;67.02;94713.84;5078172;28;20048;-71
2023/06/18 11:11:23;;;;;;;8.90;8.00;;;;;;;19.33;66.28;94720.56;5069264;28;20028;-72
2023/06/18 11:13:53;;;;;;;8.02;7.30;;;;;;;19.42;66.70;94716.84;5075978;28;20041;-71
2023/06/18 11:16:19;;;;;;;8.05;7.25;;;;;;;19.39;64.75;94704.06;5065072;28;20082;-71